sensor_id;sensor_type;location;lat;lon;timestamp;P1;durP1;ratioP1;P2;durP2;ratioP2
55784;SDS011;41709;52.536;5.688;2023-07-16T00:00:46;6.95;;;1.70;;
55784;SDS011;41709;52.536;5.688;2023-07-16T00:03:11;7.43;;;1.67;;
55784;SDS011;41709;52.536;5.688;2023-07-16T00:05:39;7.35;;;1.45;;
55784;SDS011;41709;52.536;5.688;2023-07-16T00:08:04;13.27;;;2.10;;
55784;SDS011;41709;52.536;5.688;2023-07-16T00:10:32;7.65;;;2.00;;
55784;SDS011;41709;52.536;5.688;2023-07-16T00:13:01;5.07;;;2.03;;
55784;SDS011;41709;52.536;5.688;2023-07-16T00:15:30;8.88;;;1.58;;
55784;SDS011;41709;52.536;5.688;2023-07-16T00:17:56;10.23;;;1.58;;
55784;SDS011;41709;52.536;5.688;2023-07-16T00:20:21;7.75;;;1.73;;
55784;SDS011;41709;52.536;5.688;2023-07-16T00:22:50;11.70;;;1.73;;
55784;SDS011;41709;52.536;5.688;2023-07-16T00:25:16;7.25;;;1.95;;
55784;SDS011;41709;52.536;5.688;2023-07-16T00:27:42;8.43;;;2.95;;
55784;SDS011;41709;52.536;5.688;2023-07-16T00:30:08;7.45;;;1.30;;
55784;SDS011;41709;52.536;5.688;2023-07-16T00:32:34;6.15;;;1.75;;
55784;SDS011;41709;52.536;5.688;2023-07-16T00:35:02;5.95;;;1.98;;
55784;SDS011;41709;52.536;5.688;2023-07-16T00:37:28;8.57;;;2.65;;
55784;SDS011;41709;52.536;5.688;2023-07-16T00:39:54;4.85;;;1.30;;
55784;SDS011;41709;52.536;5.688;2023-07-16T00:42:19;7.38;;;1.65;;
55784;SDS011;41709;52.536;5.688;2023-07-16T00:44:45;7.90;;;1.52;;
55784;SDS011;41709;52.536;5.688;2023-07-16T00:47:11;7.05;;;2.13;;
55784;SDS011;41709;52.536;5.688;2023-07-16T00:49:37;4.80;;;1.42;;
55784;SDS011;41709;52.536;5.688;2023-07-16T00:52:03;6.88;;;1.70;;
55784;SDS011;41709;52.536;5.688;2023-07-16T00:54:30;13.25;;;2.42;;
55784;SDS011;41709;52.536;5.688;2023-07-16T00:56:56;8.52;;;1.90;;
55784;SDS011;41709;52.536;5.688;2023-07-16T00:59:22;5.20;;;1.88;;
55784;SDS011;41709;52.536;5.688;2023-07-16T01:01:48;4.38;;;1.55;;
55784;SDS011;41709;52.536;5.688;2023-07-16T01:04:14;5.45;;;1.90;;
55784;SDS011;41709;52.536;5.688;2023-07-16T01:06:40;5.35;;;1.95;;
55784;SDS011;41709;52.536;5.688;2023-07-16T01:09:10;6.18;;;1.75;;
55784;SDS011;41709;52.536;5.688;2023-07-16T01:11:43;8.45;;;1.90;;
55784;SDS011;41709;52.536;5.688;2023-07-16T01:14:10;7.22;;;1.80;;
55784;SDS011;41709;52.536;5.688;2023-07-16T01:16:37;9.18;;;2.42;;
55784;SDS011;41709;52.536;5.688;2023-07-16T01:19:02;5.05;;;2.38;;
55784;SDS011;41709;52.536;5.688;2023-07-16T01:29:45;7.25;;;2.13;;
55784;SDS011;41709;52.536;5.688;2023-07-16T01:32:12;6.68;;;2.42;;
55784;SDS011;41709;52.536;5.688;2023-07-16T01:34:40;9.05;;;2.63;;
55784;SDS011;41709;52.536;5.688;2023-07-16T01:37:06;5.43;;;2.25;;
55784;SDS011;41709;52.536;5.688;2023-07-16T01:39:32;6.68;;;2.20;;
55784;SDS011;41709;52.536;5.688;2023-07-16T01:41:58;7.65;;;2.30;;
55784;SDS011;41709;52.536;5.688;2023-07-16T01:44:23;5.60;;;2.88;;
55784;SDS011;41709;52.536;5.688;2023-07-16T01:46:59;5.25;;;1.80;;
55784;SDS011;41709;52.536;5.688;2023-07-16T01:49:34;9.90;;;2.00;;
55784;SDS011;41709;52.536;5.688;2023-07-16T01:52:01;7.95;;;2.42;;
55784;SDS011;41709;52.536;5.688;2023-07-16T01:54:27;6.40;;;2.25;;
55784;SDS011;41709;52.536;5.688;2023-07-16T01:56:53;8.75;;;2.60;;
55784;SDS011;41709;52.536;5.688;2023-07-16T01:59:19;9.27;;;2.55;;
55784;SDS011;41709;52.536;5.688;2023-07-16T02:01:44;5.88;;;2.08;;
55784;SDS011;41709;52.536;5.688;2023-07-16T02:04:10;4.60;;;2.00;;
55784;SDS011;41709;52.536;5.688;2023-07-16T02:06:35;7.03;;;2.45;;
55784;SDS011;41709;52.536;5.688;2023-07-16T02:09:01;10.40;;;3.20;;
55784;SDS011;41709;52.536;5.688;2023-07-16T02:11:26;8.90;;;2.60;;
55784;SDS011;41709;52.536;5.688;2023-07-16T02:13:53;7.95;;;2.40;;
55784;SDS011;41709;52.536;5.688;2023-07-16T02:16:19;9.27;;;3.33;;
55784;SDS011;41709;52.536;5.688;2023-07-16T02:18:44;6.72;;;2.78;;
55784;SDS011;41709;52.536;5.688;2023-07-16T02:21:10;13.93;;;3.05;;
55784;SDS011;41709;52.536;5.688;2023-07-16T02:23:35;9.73;;;2.90;;
55784;SDS011;41709;52.536;5.688;2023-07-16T02:26:01;5.90;;;2.95;;
55784;SDS011;41709;52.536;5.688;2023-07-16T02:28:27;8.13;;;3.10;;
55784;SDS011;41709;52.536;5.688;2023-07-16T02:30:52;7.50;;;3.75;;
55784;SDS011;41709;52.536;5.688;2023-07-16T02:33:18;11.73;;;3.30;;
55784;SDS011;41709;52.536;5.688;2023-07-16T02:35:46;10.43;;;3.05;;
55784;SDS011;41709;52.536;5.688;2023-07-16T02:38:13;9.48;;;2.83;;
55784;SDS011;41709;52.536;5.688;2023-07-16T02:40:45;8.73;;;3.22;;
55784;SDS011;41709;52.536;5.688;2023-07-16T02:43:12;12.45;;;3.13;;
55784;SDS011;41709;52.536;5.688;2023-07-16T02:45:37;10.27;;;3.78;;
55784;SDS011;41709;52.536;5.688;2023-07-16T02:48:04;6.72;;;3.03;;
55784;SDS011;41709;52.536;5.688;2023-07-16T02:50:34;6.68;;;2.78;;
55784;SDS011;41709;52.536;5.688;2023-07-16T02:53:01;7.00;;;2.97;;
55784;SDS011;41709;52.536;5.688;2023-07-16T02:55:27;13.15;;;5.07;;
55784;SDS011;41709;52.536;5.688;2023-07-16T02:57:52;6.00;;;3.17;;
55784;SDS011;41709;52.536;5.688;2023-07-16T03:00:18;9.95;;;2.95;;
55784;SDS011;41709;52.536;5.688;2023-07-16T03:02:43;9.40;;;3.17;;
55784;SDS011;41709;52.536;5.688;2023-07-16T03:05:09;7.10;;;2.70;;
55784;SDS011;41709;52.536;5.688;2023-07-16T03:07:34;14.23;;;3.15;;
55784;SDS011;41709;52.536;5.688;2023-07-16T03:10:00;9.65;;;3.33;;
55784;SDS011;41709;52.536;5.688;2023-07-16T03:12:26;10.23;;;3.90;;
55784;SDS011;41709;52.536;5.688;2023-07-16T03:14:51;7.13;;;2.90;;
55784;SDS011;41709;52.536;5.688;2023-07-16T03:17:19;6.60;;;3.33;;
55784;SDS011;41709;52.536;5.688;2023-07-16T03:19:46;9.60;;;3.35;;
55784;SDS011;41709;52.536;5.688;2023-07-16T03:22:11;6.53;;;3.00;;
55784;SDS011;41709;52.536;5.688;2023-07-16T03:24:37;8.13;;;3.22;;
55784;SDS011;41709;52.536;5.688;2023-07-16T03:27:03;10.20;;;3.22;;
55784;SDS011;41709;52.536;5.688;2023-07-16T03:29:28;10.55;;;3.63;;
55784;SDS011;41709;52.536;5.688;2023-07-16T03:31:54;7.55;;;3.80;;
55784;SDS011;41709;52.536;5.688;2023-07-16T03:34:19;8.70;;;4.15;;
55784;SDS011;41709;52.536;5.688;2023-07-16T03:36:45;7.60;;;2.95;;
55784;SDS011;41709;52.536;5.688;2023-07-16T03:39:11;10.88;;;4.10;;
55784;SDS011;41709;52.536;5.688;2023-07-16T03:41:36;7.50;;;3.75;;
55784;SDS011;41709;52.536;5.688;2023-07-16T03:44:02;11.00;;;3.88;;
55784;SDS011;41709;52.536;5.688;2023-07-16T03:46:28;9.52;;;4.45;;
55784;SDS011;41709;52.536;5.688;2023-07-16T03:48:53;10.52;;;4.38;;
55784;SDS011;41709;52.536;5.688;2023-07-16T03:51:19;8.30;;;3.80;;
55784;SDS011;41709;52.536;5.688;2023-07-16T03:53:45;8.75;;;3.55;;
55784;SDS011;41709;52.536;5.688;2023-07-16T03:56:10;10.55;;;3.42;;
55784;SDS011;41709;52.536;5.688;2023-07-16T03:58:36;9.57;;;3.58;;
55784;SDS011;41709;52.536;5.688;2023-07-16T04:01:01;9.10;;;3.47;;
55784;SDS011;41709;52.536;5.688;2023-07-16T04:03:27;11.00;;;3.58;;
55784;SDS011;41709;52.536;5.688;2023-07-16T04:06:00;6.78;;;3.47;;
55784;SDS011;41709;52.536;5.688;2023-07-16T04:08:30;7.32;;;2.90;;
55784;SDS011;41709;52.536;5.688;2023-07-16T04:10:55;10.45;;;3.53;;
55784;SDS011;41709;52.536;5.688;2023-07-16T04:13:21;9.48;;;3.38;;
55784;SDS011;41709;52.536;5.688;2023-07-16T04:15:46;10.27;;;3.20;;
55784;SDS011;41709;52.536;5.688;2023-07-16T04:18:12;10.07;;;3.20;;
55784;SDS011;41709;52.536;5.688;2023-07-16T04:20:37;7.53;;;3.40;;
55784;SDS011;41709;52.536;5.688;2023-07-16T04:23:03;9.02;;;3.30;;
55784;SDS011;41709;52.536;5.688;2023-07-16T04:25:29;8.43;;;3.40;;
55784;SDS011;41709;52.536;5.688;2023-07-16T04:27:55;6.38;;;2.85;;
55784;SDS011;41709;52.536;5.688;2023-07-16T04:30:21;9.63;;;3.50;;
55784;SDS011;41709;52.536;5.688;2023-07-16T04:32:47;6.80;;;2.90;;
55784;SDS011;41709;52.536;5.688;2023-07-16T04:35:12;5.97;;;2.85;;
55784;SDS011;41709;52.536;5.688;2023-07-16T04:37:38;7.75;;;2.95;;
55784;SDS011;41709;52.536;5.688;2023-07-16T04:40:04;8.48;;;2.83;;
55784;SDS011;41709;52.536;5.688;2023-07-16T04:42:30;6.53;;;2.92;;
55784;SDS011;41709;52.536;5.688;2023-07-16T04:44:56;11.38;;;3.08;;
55784;SDS011;41709;52.536;5.688;2023-07-16T04:47:21;9.13;;;3.33;;
55784;SDS011;41709;52.536;5.688;2023-07-16T04:49:47;6.88;;;3.63;;
55784;SDS011;41709;52.536;5.688;2023-07-16T04:52:12;9.38;;;2.90;;
55784;SDS011;41709;52.536;5.688;2023-07-16T04:54:38;7.40;;;2.67;;
55784;SDS011;41709;52.536;5.688;2023-07-16T04:57:05;11.05;;;3.55;;
55784;SDS011;41709;52.536;5.688;2023-07-16T04:59:31;10.60;;;3.83;;
55784;SDS011;41709;52.536;5.688;2023-07-16T05:01:56;7.20;;;2.97;;
55784;SDS011;41709;52.536;5.688;2023-07-16T05:04:22;12.45;;;3.55;;
55784;SDS011;41709;52.536;5.688;2023-07-16T05:06:48;10.05;;;3.10;;
55784;SDS011;41709;52.536;5.688;2023-07-16T05:09:13;16.27;;;4.47;;
55784;SDS011;41709;52.536;5.688;2023-07-16T05:11:39;8.05;;;3.65;;
55784;SDS011;41709;52.536;5.688;2023-07-16T05:14:04;8.85;;;4.00;;
55784;SDS011;41709;52.536;5.688;2023-07-16T05:16:30;11.07;;;3.78;;
55784;SDS011;41709;52.536;5.688;2023-07-16T05:18:55;7.45;;;3.63;;
55784;SDS011;41709;52.536;5.688;2023-07-16T05:21:21;8.57;;;4.15;;
55784;SDS011;41709;52.536;5.688;2023-07-16T05:23:46;6.93;;;3.22;;
55784;SDS011;41709;52.536;5.688;2023-07-16T05:26:12;8.88;;;3.53;;
55784;SDS011;41709;52.536;5.688;2023-07-16T05:28:38;14.85;;;4.60;;
55784;SDS011;41709;52.536;5.688;2023-07-16T05:31:03;9.55;;;4.10;;
55784;SDS011;41709;52.536;5.688;2023-07-16T05:33:29;10.60;;;3.75;;
55784;SDS011;41709;52.536;5.688;2023-07-16T05:35:54;10.20;;;3.55;;
55784;SDS011;41709;52.536;5.688;2023-07-16T05:38:20;11.32;;;4.93;;
55784;SDS011;41709;52.536;5.688;2023-07-16T05:40:46;9.23;;;4.20;;
55784;SDS011;41709;52.536;5.688;2023-07-16T05:43:12;9.02;;;3.72;;
55784;SDS011;41709;52.536;5.688;2023-07-16T05:45:39;8.30;;;4.28;;
55784;SDS011;41709;52.536;5.688;2023-07-16T05:48:05;8.00;;;3.72;;
55784;SDS011;41709;52.536;5.688;2023-07-16T05:50:30;9.20;;;3.95;;
55784;SDS011;41709;52.536;5.688;2023-07-16T05:52:56;9.27;;;4.50;;
55784;SDS011;41709;52.536;5.688;2023-07-16T05:55:21;8.27;;;4.75;;
55784;SDS011;41709;52.536;5.688;2023-07-16T05:57:47;7.22;;;4.00;;
55784;SDS011;41709;52.536;5.688;2023-07-16T06:00:12;11.63;;;5.97;;
55784;SDS011;41709;52.536;5.688;2023-07-16T06:02:38;7.88;;;3.90;;
55784;SDS011;41709;52.536;5.688;2023-07-16T06:05:04;10.57;;;4.00;;
55784;SDS011;41709;52.536;5.688;2023-07-16T06:07:30;10.77;;;3.90;;
55784;SDS011;41709;52.536;5.688;2023-07-16T06:09:57;9.30;;;3.83;;
55784;SDS011;41709;52.536;5.688;2023-07-16T06:12:23;6.38;;;3.53;;
55784;SDS011;41709;52.536;5.688;2023-07-16T06:14:48;8.38;;;3.70;;
55784;SDS011;41709;52.536;5.688;2023-07-16T06:17:14;9.13;;;3.90;;
55784;SDS011;41709;52.536;5.688;2023-07-16T06:19:40;10.73;;;3.85;;
55784;SDS011;41709;52.536;5.688;2023-07-16T06:22:05;9.05;;;4.35;;
55784;SDS011;41709;52.536;5.688;2023-07-16T06:24:32;9.18;;;3.53;;
55784;SDS011;41709;52.536;5.688;2023-07-16T06:26:58;10.82;;;4.45;;
55784;SDS011;41709;52.536;5.688;2023-07-16T06:29:24;8.57;;;3.80;;
55784;SDS011;41709;52.536;5.688;2023-07-16T06:31:56;10.93;;;3.77;;
55784;SDS011;41709;52.536;5.688;2023-07-16T06:34:23;9.77;;;4.10;;
55784;SDS011;41709;52.536;5.688;2023-07-16T06:36:49;8.63;;;4.07;;
55784;SDS011;41709;52.536;5.688;2023-07-16T06:39:15;6.88;;;4.00;;
55784;SDS011;41709;52.536;5.688;2023-07-16T06:41:41;10.23;;;5.03;;
55784;SDS011;41709;52.536;5.688;2023-07-16T06:44:06;11.98;;;4.07;;
55784;SDS011;41709;52.536;5.688;2023-07-16T06:46:32;10.50;;;4.10;;
55784;SDS011;41709;52.536;5.688;2023-07-16T06:48:58;12.55;;;3.60;;
55784;SDS011;41709;52.536;5.688;2023-07-16T06:51:23;8.48;;;3.70;;
55784;SDS011;41709;52.536;5.688;2023-07-16T06:53:49;12.57;;;5.03;;
55784;SDS011;41709;52.536;5.688;2023-07-16T06:56:15;11.05;;;4.13;;
55784;SDS011;41709;52.536;5.688;2023-07-16T06:58:40;17.27;;;4.28;;
55784;SDS011;41709;52.536;5.688;2023-07-16T07:01:06;8.38;;;3.70;;
55784;SDS011;41709;52.536;5.688;2023-07-16T07:03:32;11.70;;;3.55;;
55784;SDS011;41709;52.536;5.688;2023-07-16T07:06:03;10.32;;;3.40;;
55784;SDS011;41709;52.536;5.688;2023-07-16T07:08:29;9.05;;;4.22;;
55784;SDS011;41709;52.536;5.688;2023-07-16T07:10:55;11.30;;;5.13;;
55784;SDS011;41709;52.536;5.688;2023-07-16T07:13:21;8.82;;;3.97;;
55784;SDS011;41709;52.536;5.688;2023-07-16T07:15:46;9.68;;;3.72;;
55784;SDS011;41709;52.536;5.688;2023-07-16T07:18:12;8.13;;;5.13;;
55784;SDS011;41709;52.536;5.688;2023-07-16T07:20:39;10.80;;;4.63;;
55784;SDS011;41709;52.536;5.688;2023-07-16T07:23:05;10.98;;;4.30;;
55784;SDS011;41709;52.536;5.688;2023-07-16T07:25:30;13.43;;;4.97;;
55784;SDS011;41709;52.536;5.688;2023-07-16T07:27:56;11.45;;;5.07;;
55784;SDS011;41709;52.536;5.688;2023-07-16T07:30:22;11.82;;;5.03;;
55784;SDS011;41709;52.536;5.688;2023-07-16T07:32:47;11.93;;;4.75;;
55784;SDS011;41709;52.536;5.688;2023-07-16T07:35:13;9.57;;;5.10;;
55784;SDS011;41709;52.536;5.688;2023-07-16T07:37:38;6.72;;;4.22;;
55784;SDS011;41709;52.536;5.688;2023-07-16T07:40:04;11.57;;;5.65;;
55784;SDS011;41709;52.536;5.688;2023-07-16T07:42:30;10.57;;;4.35;;
55784;SDS011;41709;52.536;5.688;2023-07-16T07:44:56;10.20;;;4.22;;
55784;SDS011;41709;52.536;5.688;2023-07-16T07:47:22;8.73;;;4.50;;
55784;SDS011;41709;52.536;5.688;2023-07-16T07:49:47;7.93;;;4.35;;
55784;SDS011;41709;52.536;5.688;2023-07-16T07:52:13;10.70;;;5.30;;
55784;SDS011;41709;52.536;5.688;2023-07-16T07:54:38;10.10;;;4.28;;
55784;SDS011;41709;52.536;5.688;2023-07-16T07:57:04;8.95;;;4.63;;
55784;SDS011;41709;52.536;5.688;2023-07-16T07:59:30;8.57;;;3.80;;
55784;SDS011;41709;52.536;5.688;2023-07-16T08:01:57;8.27;;;4.35;;
55784;SDS011;41709;52.536;5.688;2023-07-16T08:04:23;15.18;;;4.60;;
55784;SDS011;41709;52.536;5.688;2023-07-16T08:06:49;7.18;;;3.70;;
55784;SDS011;41709;52.536;5.688;2023-07-16T08:09:18;10.82;;;4.15;;
55784;SDS011;41709;52.536;5.688;2023-07-16T08:11:44;8.65;;;4.60;;
55784;SDS011;41709;52.536;5.688;2023-07-16T08:14:10;10.63;;;4.25;;
55784;SDS011;41709;52.536;5.688;2023-07-16T08:16:35;8.45;;;4.32;;
55784;SDS011;41709;52.536;5.688;2023-07-16T08:19:01;12.02;;;4.72;;
55784;SDS011;41709;52.536;5.688;2023-07-16T08:21:26;7.50;;;3.60;;
55784;SDS011;41709;52.536;5.688;2023-07-16T08:23:52;12.13;;;4.60;;
55784;SDS011;41709;52.536;5.688;2023-07-16T08:26:17;8.32;;;3.70;;
55784;SDS011;41709;52.536;5.688;2023-07-16T08:28:43;11.95;;;4.20;;
55784;SDS011;41709;52.536;5.688;2023-07-16T08:31:12;10.20;;;4.50;;
55784;SDS011;41709;52.536;5.688;2023-07-16T08:33:38;8.40;;;3.67;;
55784;SDS011;41709;52.536;5.688;2023-07-16T08:36:04;12.18;;;4.38;;
55784;SDS011;41709;52.536;5.688;2023-07-16T08:38:29;11.98;;;4.32;;
55784;SDS011;41709;52.536;5.688;2023-07-16T08:40:55;7.18;;;3.83;;
55784;SDS011;41709;52.536;5.688;2023-07-16T08:43:21;9.27;;;4.25;;
55784;SDS011;41709;52.536;5.688;2023-07-16T08:45:47;9.25;;;4.28;;
55784;SDS011;41709;52.536;5.688;2023-07-16T08:48:14;14.55;;;4.45;;
55784;SDS011;41709;52.536;5.688;2023-07-16T08:50:47;11.23;;;5.60;;
55784;SDS011;41709;52.536;5.688;2023-07-16T08:53:15;12.35;;;5.60;;
55784;SDS011;41709;52.536;5.688;2023-07-16T08:55:42;12.15;;;4.85;;
55784;SDS011;41709;52.536;5.688;2023-07-16T08:58:11;8.30;;;4.68;;
55784;SDS011;41709;52.536;5.688;2023-07-16T09:00:39;9.25;;;3.85;;
55784;SDS011;41709;52.536;5.688;2023-07-16T09:03:07;11.85;;;4.97;;
55784;SDS011;41709;52.536;5.688;2023-07-16T09:05:32;8.07;;;4.45;;
55784;SDS011;41709;52.536;5.688;2023-07-16T09:08:00;8.90;;;4.28;;
55784;SDS011;41709;52.536;5.688;2023-07-16T09:10:25;8.15;;;4.90;;
55784;SDS011;41709;52.536;5.688;2023-07-16T09:12:51;9.98;;;4.47;;
55784;SDS011;41709;52.536;5.688;2023-07-16T09:15:17;7.45;;;4.40;;
55784;SDS011;41709;52.536;5.688;2023-07-16T09:17:47;10.45;;;4.63;;
55784;SDS011;41709;52.536;5.688;2023-07-16T09:20:17;6.43;;;3.65;;
55784;SDS011;41709;52.536;5.688;2023-07-16T09:22:44;10.82;;;4.65;;
55784;SDS011;41709;52.536;5.688;2023-07-16T09:25:10;9.15;;;3.90;;
55784;SDS011;41709;52.536;5.688;2023-07-16T09:27:36;9.70;;;4.05;;
55784;SDS011;41709;52.536;5.688;2023-07-16T09:30:05;8.10;;;4.47;;
55784;SDS011;41709;52.536;5.688;2023-07-16T09:32:33;9.32;;;3.83;;
55784;SDS011;41709;52.536;5.688;2023-07-16T09:35:09;7.63;;;4.05;;
55784;SDS011;41709;52.536;5.688;2023-07-16T09:37:39;8.93;;;3.65;;
55784;SDS011;41709;52.536;5.688;2023-07-16T09:42:38;12.55;;;4.55;;
55784;SDS011;41709;52.536;5.688;2023-07-16T09:45:05;9.85;;;4.97;;
55784;SDS011;41709;52.536;5.688;2023-07-16T09:47:33;7.53;;;3.67;;
55784;SDS011;41709;52.536;5.688;2023-07-16T09:49:59;7.93;;;3.28;;
55784;SDS011;41709;52.536;5.688;2023-07-16T09:52:25;8.15;;;3.47;;
55784;SDS011;41709;52.536;5.688;2023-07-16T09:54:52;7.75;;;4.03;;
55784;SDS011;41709;52.536;5.688;2023-07-16T09:57:20;8.20;;;3.95;;
55784;SDS011;41709;52.536;5.688;2023-07-16T09:59:48;10.27;;;4.32;;
55784;SDS011;41709;52.536;5.688;2023-07-16T10:02:16;7.57;;;4.28;;
55784;SDS011;41709;52.536;5.688;2023-07-16T10:04:43;7.88;;;4.38;;
55784;SDS011;41709;52.536;5.688;2023-07-16T10:07:29;10.65;;;4.20;;
55784;SDS011;41709;52.536;5.688;2023-07-16T10:09:57;8.63;;;4.78;;
55784;SDS011;41709;52.536;5.688;2023-07-16T10:12:25;8.88;;;3.95;;
55784;SDS011;41709;52.536;5.688;2023-07-16T10:17:19;10.27;;;4.50;;
55784;SDS011;41709;52.536;5.688;2023-07-16T10:22:17;8.52;;;4.30;;
55784;SDS011;41709;52.536;5.688;2023-07-16T10:24:43;10.55;;;4.10;;
55784;SDS011;41709;52.536;5.688;2023-07-16T10:27:09;10.27;;;4.53;;
55784;SDS011;41709;52.536;5.688;2023-07-16T10:29:38;11.48;;;4.05;;
55784;SDS011;41709;52.536;5.688;2023-07-16T10:32:03;7.32;;;3.85;;
55784;SDS011;41709;52.536;5.688;2023-07-16T10:36:59;8.40;;;4.20;;
55784;SDS011;41709;52.536;5.688;2023-07-16T10:39:25;7.75;;;3.97;;
55784;SDS011;41709;52.536;5.688;2023-07-16T10:41:50;7.30;;;3.92;;
55784;SDS011;41709;52.536;5.688;2023-07-16T10:44:16;9.32;;;4.38;;
55784;SDS011;41709;52.536;5.688;2023-07-16T10:46:42;10.65;;;4.88;;
55784;SDS011;41709;52.536;5.688;2023-07-16T10:49:07;7.88;;;4.60;;
55784;SDS011;41709;52.536;5.688;2023-07-16T10:51:33;8.43;;;3.75;;
55784;SDS011;41709;52.536;5.688;2023-07-16T10:53:59;6.82;;;3.65;;
55784;SDS011;41709;52.536;5.688;2023-07-16T10:56:25;10.27;;;4.28;;
55784;SDS011;41709;52.536;5.688;2023-07-16T10:58:50;10.75;;;3.50;;
55784;SDS011;41709;52.536;5.688;2023-07-16T11:01:16;10.73;;;4.57;;
55784;SDS011;41709;52.536;5.688;2023-07-16T11:03:42;8.55;;;4.00;;
55784;SDS011;41709;52.536;5.688;2023-07-16T11:06:11;5.45;;;4.00;;
55784;SDS011;41709;52.536;5.688;2023-07-16T11:08:37;8.05;;;3.88;;
55784;SDS011;41709;52.536;5.688;2023-07-16T11:11:02;4.80;;;2.95;;
55784;SDS011;41709;52.536;5.688;2023-07-16T11:13:28;6.40;;;3.22;;
55784;SDS011;41709;52.536;5.688;2023-07-16T11:16:06;5.35;;;3.28;;
55784;SDS011;41709;52.536;5.688;2023-07-16T11:18:35;6.22;;;3.53;;
55784;SDS011;41709;52.536;5.688;2023-07-16T11:21:01;4.93;;;3.50;;
55784;SDS011;41709;52.536;5.688;2023-07-16T11:23:27;6.43;;;3.90;;
55784;SDS011;41709;52.536;5.688;2023-07-16T11:25:53;6.03;;;3.70;;
55784;SDS011;41709;52.536;5.688;2023-07-16T11:28:19;9.02;;;4.13;;
55784;SDS011;41709;52.536;5.688;2023-07-16T11:30:44;7.30;;;3.22;;
55784;SDS011;41709;52.536;5.688;2023-07-16T11:33:10;6.70;;;3.78;;
55784;SDS011;41709;52.536;5.688;2023-07-16T11:35:40;6.22;;;3.42;;
55784;SDS011;41709;52.536;5.688;2023-07-16T11:38:06;10.07;;;3.67;;
55784;SDS011;41709;52.536;5.688;2023-07-16T11:40:33;6.45;;;3.60;;
55784;SDS011;41709;52.536;5.688;2023-07-16T11:45:35;6.53;;;3.40;;
55784;SDS011;41709;52.536;5.688;2023-07-16T11:48:01;6.05;;;3.45;;
55784;SDS011;41709;52.536;5.688;2023-07-16T11:50:28;6.85;;;3.90;;
55784;SDS011;41709;52.536;5.688;2023-07-16T11:52:59;10.52;;;4.25;;
55784;SDS011;41709;52.536;5.688;2023-07-16T11:55:26;5.60;;;3.25;;
55784;SDS011;41709;52.536;5.688;2023-07-16T11:57:52;11.52;;;4.47;;
55784;SDS011;41709;52.536;5.688;2023-07-16T12:00:18;7.88;;;3.60;;
55784;SDS011;41709;52.536;5.688;2023-07-16T12:02:44;5.45;;;3.00;;
55784;SDS011;41709;52.536;5.688;2023-07-16T12:05:16;6.80;;;3.25;;
55784;SDS011;41709;52.536;5.688;2023-07-16T12:07:42;7.60;;;2.92;;
55784;SDS011;41709;52.536;5.688;2023-07-16T12:10:08;3.60;;;2.30;;
55784;SDS011;41709;52.536;5.688;2023-07-16T12:12:34;11.55;;;2.80;;
55784;SDS011;41709;52.536;5.688;2023-07-16T12:15:03;7.30;;;2.45;;
55784;SDS011;41709;52.536;5.688;2023-07-16T12:17:29;4.80;;;2.50;;
55784;SDS011;41709;52.536;5.688;2023-07-16T12:19:55;7.50;;;2.47;;
55784;SDS011;41709;52.536;5.688;2023-07-16T12:22:20;3.67;;;2.35;;
55784;SDS011;41709;52.536;5.688;2023-07-16T12:24:46;6.90;;;2.55;;
55784;SDS011;41709;52.536;5.688;2023-07-16T12:27:12;4.55;;;2.33;;
55784;SDS011;41709;52.536;5.688;2023-07-16T12:29:38;8.63;;;2.70;;
55784;SDS011;41709;52.536;5.688;2023-07-16T12:32:04;6.20;;;2.80;;
55784;SDS011;41709;52.536;5.688;2023-07-16T12:34:30;6.85;;;2.35;;
55784;SDS011;41709;52.536;5.688;2023-07-16T12:36:56;6.90;;;2.55;;
55784;SDS011;41709;52.536;5.688;2023-07-16T12:39:21;6.15;;;2.50;;
55784;SDS011;41709;52.536;5.688;2023-07-16T12:41:47;6.30;;;3.00;;
55784;SDS011;41709;52.536;5.688;2023-07-16T12:44:13;5.43;;;2.17;;
55784;SDS011;41709;52.536;5.688;2023-07-16T12:46:38;8.52;;;2.30;;
55784;SDS011;41709;52.536;5.688;2023-07-16T12:49:04;7.97;;;2.65;;
55784;SDS011;41709;52.536;5.688;2023-07-16T12:51:29;5.93;;;2.58;;
55784;SDS011;41709;52.536;5.688;2023-07-16T12:53:55;6.57;;;2.67;;
55784;SDS011;41709;52.536;5.688;2023-07-16T12:56:21;7.82;;;2.40;;
55784;SDS011;41709;52.536;5.688;2023-07-16T12:58:49;9.57;;;2.63;;
55784;SDS011;41709;52.536;5.688;2023-07-16T13:01:15;5.38;;;2.15;;
55784;SDS011;41709;52.536;5.688;2023-07-16T13:03:40;7.05;;;3.58;;
55784;SDS011;41709;52.536;5.688;2023-07-16T13:06:06;7.50;;;2.65;;
55784;SDS011;41709;52.536;5.688;2023-07-16T13:08:31;4.72;;;2.50;;
55784;SDS011;41709;52.536;5.688;2023-07-16T13:10:57;8.52;;;3.35;;
55784;SDS011;41709;52.536;5.688;2023-07-16T13:13:23;7.90;;;2.72;;
55784;SDS011;41709;52.536;5.688;2023-07-16T13:15:48;5.00;;;2.90;;
55784;SDS011;41709;52.536;5.688;2023-07-16T13:18:14;6.38;;;2.58;;
55784;SDS011;41709;52.536;5.688;2023-07-16T13:20:40;6.90;;;2.40;;
55784;SDS011;41709;52.536;5.688;2023-07-16T13:23:05;3.95;;;2.03;;
55784;SDS011;41709;52.536;5.688;2023-07-16T13:25:33;6.55;;;2.05;;
55784;SDS011;41709;52.536;5.688;2023-07-16T13:27:59;6.22;;;2.63;;
55784;SDS011;41709;52.536;5.688;2023-07-16T13:30:25;7.40;;;3.33;;
55784;SDS011;41709;52.536;5.688;2023-07-16T13:32:52;10.90;;;2.60;;
55784;SDS011;41709;52.536;5.688;2023-07-16T13:35:20;10.68;;;3.60;;
55784;SDS011;41709;52.536;5.688;2023-07-16T13:37:46;9.40;;;2.95;;
55784;SDS011;41709;52.536;5.688;2023-07-16T13:40:11;6.00;;;1.80;;
55784;SDS011;41709;52.536;5.688;2023-07-16T13:42:37;4.95;;;2.28;;
55784;SDS011;41709;52.536;5.688;2023-07-16T13:45:03;6.55;;;2.80;;
55784;SDS011;41709;52.536;5.688;2023-07-16T13:47:30;3.97;;;1.88;;
55784;SDS011;41709;52.536;5.688;2023-07-16T13:49:55;4.03;;;1.92;;
55784;SDS011;41709;52.536;5.688;2023-07-16T13:52:21;6.40;;;1.65;;
55784;SDS011;41709;52.536;5.688;2023-07-16T13:54:47;4.43;;;1.95;;
55784;SDS011;41709;52.536;5.688;2023-07-16T13:57:12;6.63;;;2.72;;
55784;SDS011;41709;52.536;5.688;2023-07-16T13:59:38;3.20;;;1.67;;
55784;SDS011;41709;52.536;5.688;2023-07-16T14:02:03;4.80;;;1.88;;
55784;SDS011;41709;52.536;5.688;2023-07-16T14:04:29;4.63;;;2.63;;
55784;SDS011;41709;52.536;5.688;2023-07-16T14:06:55;5.72;;;1.75;;
55784;SDS011;41709;52.536;5.688;2023-07-16T14:09:21;7.90;;;2.17;;
55784;SDS011;41709;52.536;5.688;2023-07-16T14:11:47;4.82;;;1.52;;
55784;SDS011;41709;52.536;5.688;2023-07-16T14:14:13;7.55;;;2.28;;
55784;SDS011;41709;52.536;5.688;2023-07-16T14:16:40;6.93;;;2.47;;
55784;SDS011;41709;52.536;5.688;2023-07-16T14:19:05;7.53;;;1.77;;
55784;SDS011;41709;52.536;5.688;2023-07-16T14:21:31;6.75;;;2.28;;
55784;SDS011;41709;52.536;5.688;2023-07-16T14:23:57;4.25;;;1.75;;
55784;SDS011;41709;52.536;5.688;2023-07-16T14:26:23;7.28;;;2.13;;
55784;SDS011;41709;52.536;5.688;2023-07-16T14:28:48;4.75;;;1.90;;
55784;SDS011;41709;52.536;5.688;2023-07-16T14:31:14;5.13;;;1.95;;
55784;SDS011;41709;52.536;5.688;2023-07-16T14:33:39;6.07;;;2.45;;
55784;SDS011;41709;52.536;5.688;2023-07-16T14:36:05;8.90;;;1.92;;
55784;SDS011;41709;52.536;5.688;2023-07-16T14:38:31;4.22;;;1.73;;
55784;SDS011;41709;52.536;5.688;2023-07-16T14:40:56;8.93;;;2.40;;
55784;SDS011;41709;52.536;5.688;2023-07-16T14:43:22;7.40;;;1.88;;
55784;SDS011;41709;52.536;5.688;2023-07-16T14:45:47;6.45;;;1.73;;
55784;SDS011;41709;52.536;5.688;2023-07-16T14:48:13;7.95;;;1.85;;
55784;SDS011;41709;52.536;5.688;2023-07-16T14:50:39;6.35;;;1.65;;
55784;SDS011;41709;52.536;5.688;2023-07-16T14:53:04;2.80;;;1.30;;
55784;SDS011;41709;52.536;5.688;2023-07-16T14:55:30;7.65;;;1.70;;
55784;SDS011;41709;52.536;5.688;2023-07-16T14:57:56;5.63;;;1.30;;